createdAt,value
2023-04-10T00:01:49.681Z,79.66
2023-04-10T00:04:18.812Z,79.05
2023-04-10T00:06:48.879Z,79.53
2023-04-10T00:09:16.544Z,79.17
2023-04-10T00:11:44.266Z,79.12
2023-04-10T00:14:11.854Z,78.59
2023-04-10T00:16:39.593Z,79.09
2023-04-10T00:19:08.035Z,78.78
2023-04-10T00:21:37.206Z,78.63
2023-04-10T00:24:05.309Z,79.08
2023-04-10T00:26:33.012Z,78.99
2023-04-10T00:29:00.602Z,79.66
2023-04-10T00:31:28.426Z,79.74
2023-04-10T00:33:56.216Z,79.62
2023-04-10T00:36:24.000Z,80.08
2023-04-10T00:38:52.907Z,80.04
2023-04-10T00:41:20.553Z,79.70
2023-04-10T00:43:48.149Z,80.46
2023-04-10T00:46:16.452Z,79.78
2023-04-10T00:48:44.059Z,80.02
2023-04-10T00:51:13.036Z,80.47
2023-04-10T00:53:40.922Z,80.21
2023-04-10T00:56:10.837Z,80.20
2023-04-10T00:58:39.289Z,80.34
2023-04-10T01:01:08.429Z,80.13
2023-04-10T01:03:37.171Z,79.90
2023-04-10T01:06:11.362Z,80.67
2023-04-10T01:08:48.337Z,80.22
2023-04-10T01:11:26.300Z,80.75
2023-04-10T01:14:00.295Z,80.29
2023-04-10T01:16:32.509Z,80.62
2023-04-10T01:19:08.182Z,80.34
2023-04-10T01:21:37.741Z,80.56
2023-04-10T01:24:25.356Z,80.04
2023-04-10T01:27:13.423Z,79.86
2023-04-10T01:29:46.620Z,80.49
2023-04-10T01:32:18.526Z,80.30
2023-04-10T01:34:48.719Z,79.96
2023-04-10T01:37:21.305Z,80.88
2023-04-10T01:39:52.385Z,80.77
2023-04-10T01:42:21.896Z,80.45
2023-04-10T01:44:53.152Z,81.30
2023-04-10T01:47:22.823Z,81.54
2023-04-10T01:49:52.376Z,81.17
2023-04-10T01:52:21.608Z,81.83
2023-04-10T01:54:55.931Z,80.61
2023-04-10T01:57:32.877Z,81.22
2023-04-10T02:00:01.845Z,81.16
2023-04-10T02:02:32.369Z,81.08
2023-04-10T02:05:00.622Z,80.73
2023-04-10T02:07:36.488Z,81.53
2023-04-10T02:10:11.901Z,81.17
2023-04-10T02:12:47.000Z,80.75
2023-04-10T02:15:20.185Z,79.99
2023-04-10T02:17:48.908Z,80.51
2023-04-10T02:20:18.513Z,80.46
2023-04-10T02:22:47.674Z,81.13
2023-04-10T02:25:15.772Z,81.34
2023-04-10T02:27:43.680Z,81.79
2023-04-10T02:30:12.071Z,82.14
2023-04-10T02:32:42.120Z,82.13
2023-04-10T02:35:10.200Z,82.83
2023-04-10T02:37:38.558Z,82.10
2023-04-10T02:40:07.672Z,81.94
2023-04-10T02:42:46.541Z,81.52
2023-04-10T02:45:14.176Z,81.30
2023-04-10T02:47:45.430Z,82.05
2023-04-10T02:50:13.273Z,81.24
2023-04-10T02:52:44.407Z,82.11
2023-04-10T02:55:12.285Z,81.75
2023-04-10T02:57:42.625Z,81.77
2023-04-10T03:00:11.642Z,81.71
2023-04-10T03:02:59.190Z,81.97
2023-04-10T03:05:32.222Z,81.89
2023-04-10T03:07:59.853Z,81.80
2023-04-10T03:10:27.457Z,82.26
2023-04-10T03:12:55.070Z,81.98
2023-04-10T03:15:22.657Z,82.09
2023-04-10T03:17:50.714Z,82.14
2023-04-10T03:20:19.815Z,82.02
2023-04-10T03:22:47.840Z,81.74
2023-04-10T03:25:15.972Z,81.27
2023-04-10T03:27:43.628Z,81.80
2023-04-10T03:30:11.741Z,81.11
2023-04-10T03:32:43.278Z,80.87
2023-04-10T03:35:11.895Z,79.82
2023-04-10T03:37:42.171Z,79.16
2023-04-10T03:40:11.457Z,79.63
2023-04-10T03:42:39.516Z,79.49
2023-04-10T03:45:07.988Z,80.48
2023-04-10T03:47:36.039Z,81.07
2023-04-10T03:50:07.440Z,80.38
2023-04-10T03:52:43.800Z,81.61
2023-04-10T03:55:18.902Z,81.46
2023-04-10T03:57:47.200Z,81.56
2023-04-10T04:00:15.740Z,82.12
2023-04-10T04:02:51.004Z,81.81
2023-04-10T04:05:41.991Z,81.09
2023-04-10T04:08:25.845Z,81.00
2023-04-10T04:11:12.240Z,81.44
2023-04-10T04:13:59.021Z,81.85
2023-04-10T04:16:49.344Z,81.34
2023-04-10T04:19:35.991Z,82.25
2023-04-10T04:22:09.108Z,81.72
2023-04-10T04:24:58.119Z,81.98
2023-04-10T04:27:51.689Z,82.05
2023-04-10T04:30:31.472Z,82.28
2023-04-10T04:33:25.841Z,81.90
2023-04-10T04:36:13.846Z,82.57
2023-04-10T04:39:04.836Z,82.51
2023-04-10T04:42:07.834Z,82.61
2023-04-10T04:44:38.722Z,82.96
2023-04-10T04:47:25.248Z,82.71
2023-04-10T04:50:07.726Z,83.27
2023-04-10T04:52:55.338Z,83.15
2023-04-10T04:55:34.595Z,82.64
2023-04-10T04:58:32.920Z,82.44
2023-04-10T05:01:13.826Z,82.93
2023-04-10T05:03:54.043Z,83.21
2023-04-10T05:06:53.539Z,82.92
2023-04-10T05:09:40.580Z,83.56
2023-04-10T05:12:41.834Z,82.57
2023-04-10T05:15:25.064Z,83.16
2023-04-10T05:18:08.369Z,83.47
2023-04-10T05:20:54.783Z,82.79
2023-04-10T05:23:42.458Z,82.04
2023-04-10T05:26:29.422Z,82.54
2023-04-10T05:29:11.334Z,83.01
2023-04-10T05:31:59.198Z,82.94
2023-04-10T05:34:42.739Z,82.47
2023-04-10T05:37:12.823Z,83.11
2023-04-10T05:39:50.360Z,83.01
2023-04-10T05:42:36.433Z,81.72
2023-04-10T05:45:25.897Z,82.67
2023-04-10T05:48:18.882Z,82.01
2023-04-10T05:54:28.660Z,81.71
2023-04-10T05:57:14.831Z,81.23
2023-04-10T06:00:03.173Z,80.42
2023-04-10T06:03:03.076Z,80.29
2023-04-10T06:05:33.663Z,79.84
2023-04-10T06:08:05.457Z,79.86
2023-04-10T06:10:33.379Z,79.64
2023-04-10T06:13:01.231Z,79.98
2023-04-10T06:15:30.370Z,79.87
2023-04-10T06:17:58.539Z,79.62
2023-04-10T06:20:26.305Z,78.88
2023-04-10T06:22:55.540Z,79.26
2023-04-10T06:25:23.410Z,78.76
2023-04-10T06:27:51.636Z,78.30
2023-04-10T06:30:19.488Z,77.86
2023-04-10T06:32:47.792Z,77.51
2023-04-10T06:35:15.970Z,78.04
2023-04-10T06:37:43.789Z,77.58
2023-04-10T06:40:15.391Z,77.29
2023-04-10T06:42:42.980Z,76.95
2023-04-10T06:45:16.299Z,76.59
2023-04-10T06:47:44.108Z,77.00
2023-04-10T06:50:11.929Z,76.98
2023-04-10T06:52:39.485Z,76.98
2023-04-10T06:55:08.068Z,77.31
2023-04-10T06:57:36.950Z,76.96
2023-04-10T07:00:05.059Z,76.49
2023-04-10T07:02:32.669Z,75.74
2023-04-10T07:05:00.379Z,75.17
2023-04-10T07:07:29.173Z,74.31
2023-04-10T07:09:57.826Z,74.48
2023-04-10T07:12:25.475Z,73.62
2023-04-10T07:14:54.626Z,72.65
2023-04-10T07:17:22.269Z,70.92
2023-04-10T07:19:50.133Z,70.98
2023-04-10T07:22:17.700Z,69.67
2023-04-10T07:24:45.703Z,68.88
2023-04-10T07:27:13.579Z,66.81
2023-04-10T07:29:41.530Z,67.23
2023-04-10T07:32:10.871Z,67.13
2023-04-10T07:34:38.534Z,66.61
2023-04-10T07:37:07.111Z,66.25
2023-04-10T07:39:34.716Z,65.07
2023-04-10T07:42:02.397Z,63.76
2023-04-10T07:44:29.951Z,62.34
2023-04-10T07:46:58.863Z,62.13
2023-04-10T07:49:27.777Z,61.59
2023-04-10T07:51:55.752Z,62.13
2023-04-10T07:54:23.328Z,60.94
2023-04-10T07:56:53.087Z,59.24
2023-04-10T07:59:20.767Z,59.16
2023-04-10T08:01:48.982Z,60.27
2023-04-10T08:04:16.865Z,58.75
2023-04-10T08:06:46.245Z,58.03
2023-04-10T08:09:13.788Z,57.65
2023-04-10T08:11:41.468Z,57.82
2023-04-10T08:14:09.032Z,57.38
2023-04-10T08:16:38.572Z,57.03
2023-04-10T08:19:06.594Z,57.68
2023-04-10T08:21:34.387Z,55.78
2023-04-10T08:24:04.582Z,56.47
2023-04-10T08:26:32.427Z,56.54
2023-04-10T08:29:01.275Z,55.75
2023-04-10T08:31:30.763Z,53.37
2023-04-10T08:33:59.045Z,55.19
2023-04-10T08:36:27.851Z,54.72
2023-04-10T08:38:55.451Z,53.22
2023-04-10T08:41:24.542Z,52.21
2023-04-10T08:43:52.240Z,53.42
2023-04-10T08:46:20.200Z,53.21
2023-04-10T08:48:54.256Z,52.90
2023-04-10T08:51:25.971Z,52.58
2023-04-10T08:53:59.721Z,51.42
2023-04-10T08:56:28.873Z,52.16
2023-04-10T08:58:56.522Z,50.68
2023-04-10T09:01:24.810Z,49.92
2023-04-10T09:03:52.586Z,49.62
2023-04-10T09:06:20.379Z,48.25
2023-04-10T09:08:47.958Z,48.78
2023-04-10T09:11:15.594Z,48.19
2023-04-10T09:13:46.646Z,47.97
2023-04-10T09:16:15.377Z,47.68
2023-04-10T09:18:47.941Z,45.76
2023-04-10T09:21:17.241Z,46.67
2023-04-10T09:23:45.877Z,45.40
2023-04-10T09:26:30.300Z,45.80
2023-04-10T09:29:03.991Z,45.83
2023-04-10T09:31:34.527Z,45.60
2023-04-10T09:34:09.945Z,43.80
2023-04-10T09:36:38.488Z,44.08
2023-04-10T09:39:06.806Z,44.21
2023-04-10T09:41:34.850Z,43.27
2023-04-10T09:44:12.332Z,44.44
2023-04-10T09:46:39.935Z,45.61
2023-04-10T09:49:07.831Z,45.17
2023-04-10T09:51:37.035Z,43.00
2023-04-10T09:54:05.099Z,42.50
2023-04-10T09:56:37.301Z,42.50
2023-04-10T09:59:07.232Z,43.07
2023-04-10T10:01:40.369Z,41.39
2023-04-10T10:04:09.327Z,42.72
2023-04-10T10:06:39.600Z,40.37
2023-04-10T10:09:07.312Z,40.77
2023-04-10T10:11:36.183Z,41.12
2023-04-10T10:14:07.063Z,39.76
2023-04-10T10:16:44.187Z,40.30
2023-04-10T10:19:17.452Z,39.85
2023-04-10T10:21:46.110Z,38.96
2023-04-10T10:24:14.730Z,39.21
2023-04-10T10:26:44.126Z,37.59
2023-04-10T10:29:13.423Z,38.61
2023-04-10T10:31:43.416Z,38.05
2023-04-10T10:34:11.303Z,37.63
2023-04-10T10:36:40.843Z,38.00
2023-04-10T10:39:25.972Z,37.12
2023-04-10T10:42:01.643Z,37.65
2023-04-10T10:44:38.438Z,37.62
2023-04-10T10:47:15.123Z,36.77
2023-04-10T10:49:54.392Z,38.50
2023-04-10T10:52:45.208Z,37.48
2023-04-10T10:55:37.992Z,37.56
2023-04-10T10:58:07.585Z,37.22
2023-04-10T11:01:09.807Z,38.13
2023-04-10T11:03:40.095Z,38.14
2023-04-10T11:06:09.248Z,36.21
2023-04-10T11:08:42.656Z,36.15
2023-04-10T11:11:12.919Z,35.08
2023-04-10T11:13:41.830Z,34.86
2023-04-10T11:16:11.512Z,34.83
2023-04-10T11:19:13.171Z,35.47
2023-04-10T11:22:01.911Z,35.64
2023-04-10T11:24:30.626Z,36.37
2023-04-10T11:26:58.643Z,37.50
2023-04-10T11:29:44.259Z,33.64
2023-04-10T11:32:11.887Z,33.47
2023-04-10T11:34:46.199Z,34.19
2023-04-10T11:37:24.118Z,35.70
2023-04-10T11:40:04.560Z,34.22
2023-04-10T11:42:32.413Z,32.95
2023-04-10T11:45:00.653Z,35.10
2023-04-10T11:47:28.302Z,35.77
2023-04-10T11:49:58.806Z,34.77
2023-04-10T11:52:26.663Z,35.83
2023-04-10T11:54:54.496Z,36.41
2023-04-10T11:57:22.040Z,33.31
2023-04-10T11:59:52.110Z,33.60
2023-04-10T12:02:19.760Z,34.03
2023-04-10T12:04:47.816Z,34.49
2023-04-10T12:07:16.881Z,35.72
2023-04-10T12:09:44.490Z,35.19
2023-04-10T12:12:12.254Z,35.54
2023-04-10T12:14:43.041Z,35.60
2023-04-10T12:17:12.925Z,34.36
2023-04-10T12:19:41.562Z,35.41
2023-04-10T12:22:12.708Z,34.71
2023-04-10T12:24:46.697Z,35.04
2023-04-10T12:27:18.439Z,35.10
2023-04-10T12:29:47.234Z,35.39
2023-04-10T12:32:15.371Z,35.08
2023-04-10T12:34:43.394Z,34.74
2023-04-10T12:37:10.961Z,33.78
2023-04-10T12:39:38.701Z,35.88
2023-04-10T12:42:14.908Z,35.63
2023-04-10T12:44:53.257Z,34.83
2023-04-10T12:47:21.088Z,35.18
2023-04-10T12:50:09.089Z,35.78
2023-04-10T12:52:38.156Z,36.04
2023-04-10T12:55:11.457Z,33.65
2023-04-10T12:57:40.761Z,34.77
2023-04-10T13:00:10.993Z,34.17
2023-04-10T13:02:39.072Z,32.57
2023-04-10T13:05:08.674Z,32.51
2023-04-10T13:07:37.375Z,33.55
2023-04-10T13:10:06.262Z,32.58
2023-04-10T13:12:34.858Z,33.77
2023-04-10T13:15:04.337Z,34.15
2023-04-10T13:17:31.924Z,34.93
2023-04-10T13:19:59.637Z,34.04
2023-04-10T13:22:27.193Z,33.93
2023-04-10T13:24:55.102Z,33.74
2023-04-10T13:27:22.685Z,33.69
2023-04-10T13:29:50.401Z,34.92
2023-04-10T13:32:19.311Z,36.43
2023-04-10T13:34:47.027Z,34.90
2023-04-10T13:37:14.720Z,34.83
2023-04-10T13:39:43.409Z,35.28
2023-04-10T13:42:11.283Z,33.59
2023-04-10T13:44:38.897Z,33.23
2023-04-10T13:47:07.462Z,31.97
2023-04-10T13:49:36.565Z,33.86
2023-04-10T13:52:04.246Z,34.07
2023-04-10T13:54:31.796Z,34.14
2023-04-10T13:56:59.851Z,34.63
2023-04-10T13:59:27.438Z,33.99
2023-04-10T14:01:55.284Z,33.64
2023-04-10T14:04:22.938Z,33.79
2023-04-10T14:06:53.118Z,34.06
2023-04-10T14:09:20.678Z,34.33
2023-04-10T14:11:48.470Z,34.10
2023-04-10T14:14:16.021Z,34.21
2023-04-10T14:16:43.641Z,33.17
2023-04-10T14:19:11.863Z,32.52
2023-04-10T14:21:40.982Z,32.86
2023-04-10T14:24:09.856Z,32.05
2023-04-10T14:26:37.708Z,31.82
2023-04-10T14:29:07.832Z,31.64
2023-04-10T14:31:39.189Z,30.70
2023-04-10T14:34:11.839Z,31.38
2023-04-10T14:36:39.510Z,32.02
2023-04-10T14:39:07.083Z,31.96
2023-04-10T14:41:36.107Z,30.37
2023-04-10T14:44:04.085Z,30.58
2023-04-10T14:46:31.785Z,30.14
2023-04-10T14:48:59.405Z,32.13
2023-04-10T14:51:27.761Z,32.32
2023-04-10T14:53:55.643Z,30.12
2023-04-10T14:56:23.854Z,30.86
2023-04-10T14:58:52.769Z,30.30
2023-04-10T15:01:20.705Z,29.26
2023-04-10T15:03:49.150Z,29.53
2023-04-10T15:06:17.400Z,30.70
2023-04-10T15:08:45.004Z,30.42
2023-04-10T15:11:12.683Z,30.74
2023-04-10T15:13:40.414Z,29.00
2023-04-10T15:16:09.459Z,29.20
2023-04-10T15:18:37.124Z,29.61
2023-04-10T15:21:05.620Z,30.39
2023-04-10T15:23:33.401Z,29.13
2023-04-10T15:26:02.816Z,29.60
2023-04-10T15:28:30.513Z,29.98
2023-04-10T15:30:58.094Z,30.14
2023-04-10T15:33:27.152Z,31.45
2023-04-10T15:35:54.714Z,30.47
2023-04-10T15:38:22.530Z,30.71
2023-04-10T15:40:50.085Z,30.60
2023-04-10T15:43:18.319Z,30.05
2023-04-10T15:45:46.509Z,30.49
2023-04-10T15:48:14.335Z,31.11
2023-04-10T15:50:43.394Z,31.02
2023-04-10T15:53:11.096Z,30.65
2023-04-10T15:55:40.396Z,31.30
2023-04-10T15:58:08.259Z,32.47
2023-04-10T16:00:35.878Z,31.43
2023-04-10T16:03:03.927Z,30.90
2023-04-10T16:05:31.657Z,32.02
2023-04-10T16:08:00.666Z,32.72
2023-04-10T16:10:28.250Z,31.68
2023-04-10T16:12:56.672Z,31.71
2023-04-10T16:15:24.224Z,32.64
2023-04-10T16:17:51.946Z,32.12
2023-04-10T16:20:19.677Z,32.86
2023-04-10T16:22:47.493Z,33.06
2023-04-10T16:25:16.939Z,34.62
2023-04-10T16:27:45.248Z,34.30
2023-04-10T16:30:13.592Z,35.12
2023-04-10T16:32:41.415Z,35.67
2023-04-10T16:35:09.486Z,36.98
2023-04-10T16:37:37.290Z,36.50
2023-04-10T16:40:05.625Z,36.86
2023-04-10T16:42:34.629Z,37.80
2023-04-10T16:45:02.926Z,38.82
2023-04-10T16:47:30.756Z,38.83
2023-04-10T16:49:58.394Z,39.17
2023-04-10T16:52:26.294Z,39.94
2023-04-10T16:54:53.842Z,40.21
2023-04-10T16:57:22.160Z,40.43
2023-04-10T16:59:51.074Z,40.19
2023-04-10T17:02:18.734Z,41.33
2023-04-10T17:04:46.322Z,41.88
2023-04-10T17:07:13.866Z,42.75
2023-04-10T17:09:41.668Z,43.14
2023-04-10T17:12:09.310Z,43.49
2023-04-10T17:14:37.487Z,43.00
2023-04-10T17:17:06.468Z,43.09
2023-04-10T17:19:34.342Z,43.80
2023-04-10T17:22:02.029Z,43.70
2023-04-10T17:24:31.396Z,43.54
2023-04-10T17:27:00.824Z,44.17
2023-04-10T17:29:28.543Z,44.75
2023-04-10T17:31:56.175Z,45.26
2023-04-10T17:34:25.101Z,45.99
2023-04-10T17:36:53.054Z,46.63
2023-04-10T17:39:20.729Z,46.90
2023-04-10T17:41:48.300Z,47.63
2023-04-10T17:44:16.210Z,48.32
2023-04-10T17:46:43.767Z,48.84
2023-04-10T17:49:11.677Z,48.88
2023-04-10T17:51:41.746Z,49.03
2023-04-10T17:54:09.909Z,49.58
2023-04-10T17:56:37.484Z,49.30
2023-04-10T17:59:05.377Z,48.50
2023-04-10T18:01:32.967Z,48.46
2023-04-10T18:04:02.982Z,48.90
2023-04-10T18:06:31.541Z,48.89
2023-04-10T18:09:00.583Z,49.34
2023-04-10T18:11:28.456Z,49.30
2023-04-10T18:13:56.064Z,49.72
2023-04-10T18:16:23.751Z,50.06
2023-04-10T18:18:51.422Z,51.10
2023-04-10T18:21:19.038Z,51.39
2023-04-10T18:23:46.743Z,51.35
2023-04-10T18:26:15.916Z,50.90
2023-04-10T18:28:45.270Z,50.75
2023-04-10T18:31:15.734Z,51.31
2023-04-10T18:33:43.504Z,51.23
2023-04-10T18:36:14.036Z,51.12
2023-04-10T18:38:42.865Z,51.31
2023-04-10T18:41:10.585Z,51.74
2023-04-10T18:43:39.679Z,52.32
2023-04-10T18:46:07.892Z,53.17
2023-04-10T18:48:35.864Z,53.44
2023-04-10T18:51:03.434Z,54.25
2023-04-10T18:53:31.001Z,54.74
2023-04-10T18:55:58.727Z,55.31
2023-04-10T18:58:26.308Z,55.67
2023-04-10T19:00:55.602Z,56.03
2023-04-10T19:03:23.396Z,56.32
2023-04-10T19:05:51.275Z,56.83
2023-04-10T19:08:18.870Z,56.88
2023-04-10T19:10:46.486Z,57.76
2023-04-10T19:13:14.114Z,58.68
2023-04-10T19:15:42.615Z,59.25
2023-04-10T19:18:13.100Z,59.42
2023-04-10T19:20:48.868Z,59.31
2023-04-10T19:23:19.059Z,58.86
2023-04-10T19:25:46.878Z,58.75
2023-04-10T19:28:14.502Z,59.40
2023-04-10T19:30:42.227Z,60.53
2023-04-10T19:33:11.177Z,60.26
2023-04-10T19:35:38.905Z,60.42
2023-04-10T19:38:09.467Z,61.23
2023-04-10T19:40:37.519Z,60.23
2023-04-10T19:43:05.247Z,60.70
2023-04-10T19:45:33.182Z,61.82
2023-04-10T19:48:01.124Z,62.26
2023-04-10T19:50:31.314Z,62.62
2023-04-10T19:52:59.539Z,63.13
2023-04-10T19:55:27.391Z,64.16
2023-04-10T19:57:55.596Z,63.77
2023-04-10T20:00:23.295Z,63.54
2023-04-10T20:02:51.221Z,64.02
2023-04-10T20:05:19.108Z,64.35
2023-04-10T20:07:48.256Z,64.11
2023-04-10T20:10:15.824Z,64.12
2023-04-10T20:12:43.675Z,63.76
2023-04-10T20:15:12.414Z,64.00
2023-04-10T20:17:40.148Z,63.29
2023-04-10T20:20:08.909Z,62.00
2023-04-10T20:22:36.598Z,63.29
2023-04-10T20:25:06.203Z,63.12
2023-04-10T20:27:33.911Z,62.99
2023-04-10T20:30:01.478Z,64.00
2023-04-10T20:32:29.213Z,63.84
2023-04-10T20:34:56.815Z,63.57
2023-04-10T20:37:24.441Z,64.63
2023-04-10T20:39:52.034Z,65.94
2023-04-10T20:42:23.064Z,64.75
2023-04-10T20:44:50.838Z,64.79
2023-04-10T20:47:18.415Z,64.42
2023-04-10T20:49:46.023Z,65.79
2023-04-10T20:52:13.737Z,65.78
2023-04-10T20:54:41.331Z,66.38
2023-04-10T20:57:08.928Z,65.82
2023-04-10T20:59:37.844Z,64.63
2023-04-10T21:02:05.653Z,64.21
2023-04-10T21:04:33.635Z,63.71
2023-04-10T21:07:01.236Z,63.49
2023-04-10T21:09:28.832Z,63.66
2023-04-10T21:11:57.667Z,63.60
2023-04-10T21:14:25.237Z,63.41
2023-04-10T21:16:54.237Z,63.82
2023-04-10T21:19:21.901Z,65.45
2023-04-10T21:21:49.651Z,65.23
2023-04-10T21:24:17.243Z,65.77
2023-04-10T21:26:44.865Z,67.30
2023-04-10T21:29:12.457Z,67.18
2023-04-10T21:31:40.103Z,68.55
2023-04-10T21:34:09.185Z,68.58
2023-04-10T21:36:36.770Z,68.18
2023-04-10T21:39:09.026Z,68.71
2023-04-10T21:41:36.872Z,69.14
2023-04-10T21:44:04.748Z,69.21
2023-04-10T21:46:32.559Z,69.43
2023-04-10T21:49:00.366Z,68.95
2023-04-10T21:51:29.626Z,68.84
2023-04-10T21:53:57.343Z,69.26
2023-04-10T21:56:25.718Z,68.98
2023-04-10T21:58:53.889Z,68.29
2023-04-10T22:01:21.710Z,65.06
2023-04-10T22:03:50.757Z,63.51
2023-04-10T22:06:18.611Z,62.49
2023-04-10T22:08:47.553Z,62.54
2023-04-10T22:11:15.138Z,64.36
2023-04-10T22:13:42.833Z,67.21
2023-04-10T22:16:10.455Z,67.74
2023-04-10T22:18:38.274Z,69.11
2023-04-10T22:21:06.075Z,69.62
2023-04-10T22:23:33.824Z,69.48
2023-04-10T22:26:02.955Z,70.02
2023-04-10T22:28:31.060Z,71.14
2023-04-10T22:30:58.723Z,70.83
2023-04-10T22:33:26.581Z,70.40
2023-04-10T22:35:54.253Z,67.88
2023-04-10T22:38:22.030Z,68.99
2023-04-10T22:40:49.632Z,69.53
2023-04-10T22:43:18.570Z,69.97
2023-04-10T22:45:46.216Z,70.33
2023-04-10T22:48:14.077Z,71.33
2023-04-10T22:50:41.672Z,70.66
2023-04-10T22:53:12.090Z,68.24
2023-04-10T22:55:40.114Z,68.31
2023-04-10T22:58:08.479Z,69.81
2023-04-10T23:00:37.526Z,69.17
2023-04-10T23:03:05.397Z,70.32
2023-04-10T23:05:33.854Z,70.21
2023-04-10T23:08:01.697Z,66.79
2023-04-10T23:10:29.261Z,65.19
2023-04-10T23:12:56.970Z,64.27
2023-04-10T23:15:24.527Z,63.32
2023-04-10T23:17:53.593Z,63.40
2023-04-10T23:20:21.499Z,63.56
2023-04-10T23:22:49.095Z,64.50
2023-04-10T23:25:17.079Z,64.21
2023-04-10T23:27:44.628Z,64.51
2023-04-10T23:30:12.657Z,63.38
2023-04-10T23:32:40.290Z,62.51
2023-04-10T23:35:10.472Z,62.36
2023-04-10T23:37:38.142Z,62.44
2023-04-10T23:40:06.743Z,62.25
2023-04-10T23:42:34.320Z,61.78
2023-04-10T23:45:02.064Z,61.86
2023-04-10T23:47:29.717Z,61.52
2023-04-10T23:49:58.595Z,61.17
2023-04-10T23:52:27.648Z,60.75
2023-04-10T23:54:56.712Z,60.13
2023-04-10T23:57:24.456Z,59.91
2023-04-10T23:59:53.036Z,59.52
